createdAt,value
2017-11-21T00:01:36.220Z,97739.77
2017-11-21T00:03:12.803Z,97801.34
2017-11-21T00:06:30.448Z,97927.73
2017-11-21T00:08:08.601Z,98028.39
2017-11-21T00:09:45.143Z,98097.93
2017-11-21T00:11:21.847Z,98081.79
2017-11-21T00:12:58.215Z,98030.19
2017-11-21T00:14:34.461Z,98043.28
2017-11-21T00:16:11.438Z,97769.02
2017-11-21T00:17:49.127Z,97708.84
2017-11-21T00:19:25.539Z,97603.58
2017-11-21T00:21:02.151Z,97604.91
2017-11-21T00:22:38.818Z,97664.71
2017-11-21T00:24:18.675Z,97797.08
2017-11-21T00:26:02.797Z,97833.94
2017-11-21T00:27:39.408Z,97941.67
2017-11-21T00:29:15.717Z,97969.72
2017-11-21T00:30:52.816Z,97964.08
2017-11-21T00:32:29.248Z,97960.55
2017-11-21T00:34:05.552Z,97952.68
2017-11-21T00:35:41.824Z,97972.93
2017-11-21T00:37:18.545Z,97923.74
2017-11-21T00:38:54.960Z,97770.88
2017-11-21T00:40:31.628Z,97847.43
2017-11-21T00:42:12.488Z,97942.70
2017-11-21T00:43:49.181Z,97927.40
2017-11-21T00:45:27.723Z,97996.63
2017-11-21T00:47:03.959Z,97967.25
2017-11-21T00:48:40.399Z,98029.80
2017-11-21T00:50:17.353Z,98065.22
2017-11-21T00:51:53.661Z,98124.95
2017-11-21T00:53:30.757Z,97926.97
2017-11-21T00:55:07.425Z,97765.67
2017-11-21T00:56:43.953Z,97838.23
2017-11-21T00:58:20.225Z,97699.75
2017-11-21T00:59:57.353Z,97646.08
2017-11-21T01:01:34.637Z,97812.89
2017-11-21T01:03:11.544Z,97921.76
2017-11-21T01:04:47.782Z,97958.83
2017-11-21T01:06:24.063Z,97988.72
2017-11-21T01:08:00.374Z,97915.09
2017-11-21T01:09:45.383Z,97980.38
2017-11-21T01:11:21.542Z,97967.30
2017-11-21T01:12:57.748Z,98016.80
2017-11-21T01:14:34.428Z,98110.84
2017-11-21T01:16:15.755Z,98081.91
2017-11-21T01:17:52.734Z,98066.25
2017-11-21T01:19:29.844Z,98091.16
2017-11-21T01:21:06.115Z,98049.59
2017-11-21T01:22:46.815Z,97893.81
2017-11-21T01:24:23.292Z,98039.57
2017-11-21T01:25:59.644Z,98004.59
2017-11-21T01:27:36.776Z,97957.31
2017-11-21T01:29:13.636Z,97987.59
2017-11-21T01:30:50.077Z,98115.31
2017-11-21T01:34:09.162Z,98098.17
2017-11-21T01:35:46.381Z,98052.69
2017-11-21T01:37:22.827Z,98048.69
2017-11-21T01:38:59.106Z,98011.95
2017-11-21T01:40:35.574Z,97929.28
2017-11-21T01:42:12.480Z,97964.84
2017-11-21T01:43:48.790Z,97903.44
2017-11-21T01:45:26.604Z,97896.48
2017-11-21T01:47:03.274Z,98018.61
2017-11-21T01:48:40.066Z,98142.95
2017-11-21T01:50:16.205Z,98156.94
2017-11-21T01:51:52.401Z,98146.95
2017-11-21T01:53:29.150Z,98027.39
2017-11-21T01:55:06.174Z,98093.05
2017-11-21T01:56:42.795Z,97977.06
2017-11-21T01:58:19.193Z,98065.52
2017-11-21T01:59:56.218Z,98205.20
2017-11-21T02:01:33.212Z,98244.27
2017-11-21T02:03:09.493Z,98090.86
2017-11-21T02:04:45.623Z,98093.53
2017-11-21T02:06:22.021Z,98169.68
2017-11-21T02:07:59.020Z,98273.53
2017-11-21T02:09:35.478Z,98222.30
2017-11-21T02:11:12.844Z,98175.84
2017-11-21T02:12:50.874Z,98153.53
2017-11-21T02:14:28.554Z,98218.86
2017-11-21T02:16:07.365Z,98219.64
2017-11-21T02:17:45.566Z,98190.39
2017-11-21T02:19:23.863Z,98088.78
2017-11-21T02:21:00.391Z,98003.47
2017-11-21T02:22:36.841Z,97892.30
2017-11-21T02:24:14.261Z,97948.72
2017-11-21T02:25:50.721Z,98152.28
2017-11-21T02:27:27.401Z,98175.02
2017-11-21T02:29:03.722Z,98156.71
2017-11-21T02:30:40.511Z,98154.05
2017-11-21T02:32:16.855Z,98145.27
2017-11-21T02:33:53.890Z,98133.47
2017-11-21T02:35:30.295Z,98197.41
2017-11-21T02:37:06.749Z,98247.84
2017-11-21T02:38:43.282Z,98221.09
2017-11-21T02:40:21.361Z,98156.28
2017-11-21T02:41:57.721Z,98084.01
2017-11-21T02:43:34.238Z,97975.55
2017-11-21T02:45:10.739Z,98129.98
2017-11-21T02:46:49.202Z,98202.75
2017-11-21T02:48:25.732Z,98167.26
2017-11-21T02:50:02.029Z,98058.14
2017-11-21T02:51:38.274Z,98079.70
2017-11-21T02:53:15.113Z,98233.49
2017-11-21T02:54:52.293Z,98327.64
2017-11-21T02:56:28.816Z,98362.45
2017-11-21T02:58:05.342Z,98398.32
2017-11-21T02:59:42.027Z,98482.59
2017-11-21T03:01:18.542Z,98462.33
2017-11-21T03:02:54.919Z,98400.95
2017-11-21T03:04:31.236Z,98323.28
2017-11-21T03:06:08.141Z,98212.91
2017-11-21T03:07:44.354Z,98362.53
2017-11-21T03:09:20.770Z,98474.30
2017-11-21T03:10:57.858Z,98478.19
2017-11-21T03:12:34.775Z,98508.08
2017-11-21T03:14:14.125Z,98514.28
2017-11-21T03:15:50.721Z,98457.17
2017-11-21T03:17:27.382Z,98272.52
2017-11-21T03:19:04.158Z,98204.16
2017-11-21T03:20:53.527Z,98244.98
2017-11-21T03:26:45.004Z,98150.33
2017-11-21T03:28:33.016Z,98251.45
2017-11-21T03:30:09.877Z,98193.17
2017-11-21T03:31:46.517Z,98074.14
2017-11-21T03:33:23.169Z,98070.62
2017-11-21T03:34:59.630Z,98051.22
2017-11-21T03:36:36.492Z,98156.95
2017-11-21T03:38:12.838Z,98207.61
2017-11-21T03:39:49.174Z,98208.47
2017-11-21T03:41:25.442Z,98184.00
2017-11-21T03:43:02.129Z,98229.09
2017-11-21T03:44:38.697Z,98175.69
2017-11-21T03:46:16.253Z,97939.77
2017-11-21T03:47:52.554Z,97975.23
2017-11-21T03:49:29.340Z,98058.44
2017-11-21T03:51:05.649Z,98180.59
2017-11-21T03:52:41.986Z,98144.56
2017-11-21T03:54:18.326Z,98227.02
2017-11-21T03:55:54.996Z,98197.61
2017-11-21T03:57:31.993Z,98207.69
2017-11-21T03:59:08.244Z,98233.58
2017-11-21T04:00:46.418Z,98204.28
2017-11-21T04:02:24.187Z,98302.84
2017-11-21T04:04:00.833Z,98105.22
2017-11-21T04:05:37.134Z,98142.45
2017-11-21T04:07:13.503Z,98143.78
2017-11-21T04:08:51.007Z,98048.28
2017-11-21T04:10:27.290Z,98052.23
2017-11-21T04:12:03.638Z,98195.92
2017-11-21T04:13:40.032Z,98272.13
2017-11-21T04:15:19.925Z,98319.91
2017-11-21T04:16:56.187Z,98319.91
2017-11-21T04:18:32.554Z,98422.63
2017-11-21T04:20:08.788Z,98443.63
2017-11-21T04:21:45.496Z,98412.11
2017-11-21T04:23:22.601Z,98228.36
2017-11-21T04:24:58.856Z,98196.40
2017-11-21T04:26:35.189Z,98239.73
2017-11-21T04:28:12.823Z,98277.94
2017-11-21T04:29:49.628Z,98344.95
2017-11-21T04:31:26.626Z,98393.22
2017-11-21T04:33:03.302Z,98298.57
2017-11-21T04:34:40.061Z,98164.41
2017-11-21T04:36:16.459Z,98135.56
2017-11-21T04:37:53.505Z,98210.83
2017-11-21T04:39:30.644Z,98199.89
2017-11-21T04:41:07.330Z,98311.55
2017-11-21T04:42:43.719Z,98278.80
2017-11-21T04:44:20.754Z,98216.13
2017-11-21T04:45:57.370Z,98331.34
2017-11-21T04:47:33.708Z,98331.77
2017-11-21T04:49:10.060Z,98195.50
2017-11-21T04:50:46.702Z,98275.27
2017-11-21T04:52:23.166Z,98313.84
2017-11-21T04:54:00.651Z,98352.92
2017-11-21T04:55:37.693Z,98334.83
2017-11-21T04:57:14.079Z,98303.79
2017-11-21T04:58:50.325Z,98239.38
2017-11-21T05:00:29.093Z,98167.86
2017-11-21T05:02:05.386Z,98199.03
2017-11-21T05:03:41.660Z,98261.38
2017-11-21T05:05:17.830Z,98138.22
2017-11-21T05:06:55.961Z,98235.45
2017-11-21T05:08:33.360Z,98292.38
2017-11-21T05:10:12.168Z,98201.70
2017-11-21T05:11:48.428Z,98324.47
2017-11-21T05:13:25.030Z,98316.03
2017-11-21T05:15:01.311Z,98346.76
2017-11-21T05:16:37.650Z,98262.05
2017-11-21T05:18:13.947Z,98133.87
2017-11-21T05:19:51.494Z,98136.46
2017-11-21T05:21:27.867Z,98145.16
2017-11-21T05:23:04.231Z,98134.66
2017-11-21T05:24:40.527Z,98206.64
2017-11-21T05:26:17.464Z,98270.56
2017-11-21T05:27:53.648Z,98339.81
2017-11-21T05:29:29.926Z,98383.68
2017-11-21T05:31:06.385Z,98281.03
2017-11-21T05:32:57.634Z,98190.41
2017-11-21T05:34:35.728Z,98141.33
2017-11-21T05:36:13.534Z,98213.14
2017-11-21T05:37:51.747Z,98262.68
2017-11-21T05:39:30.732Z,98336.40
2017-11-21T05:41:08.726Z,98439.44
2017-11-21T05:42:45.128Z,98500.89
2017-11-21T05:44:28.870Z,98455.22
2017-11-21T05:46:05.592Z,98389.06
2017-11-21T05:47:41.989Z,98327.14
2017-11-21T05:49:19.262Z,98210.48
2017-11-21T05:50:55.561Z,98282.41
2017-11-21T05:52:32.251Z,98240.41
2017-11-21T05:54:08.632Z,98296.45
2017-11-21T05:55:44.866Z,98295.67
2017-11-21T05:57:21.160Z,98128.23
2017-11-21T05:58:57.859Z,97990.33
2017-11-21T06:00:34.546Z,98096.34
2017-11-21T06:02:11.169Z,98140.93
2017-11-21T06:03:49.021Z,98289.04
2017-11-21T06:05:27.706Z,98350.02
2017-11-21T06:07:04.057Z,98416.78
2017-11-21T06:08:41.497Z,98485.89
2017-11-21T06:12:11.516Z,98264.95
2017-11-21T06:13:50.821Z,98307.48
2017-11-21T06:15:30.319Z,98350.09
2017-11-21T06:17:06.815Z,98349.16
2017-11-21T06:18:43.960Z,98437.39
2017-11-21T06:20:20.275Z,98533.89
2017-11-21T06:21:56.585Z,98614.80
2017-11-21T06:23:33.150Z,98439.87
2017-11-21T06:25:09.421Z,98300.46
2017-11-21T06:26:45.837Z,98157.28
2017-11-21T06:28:22.175Z,98246.17
2017-11-21T06:29:59.656Z,98131.81
2017-11-21T06:31:36.671Z,98130.91
2017-11-21T06:33:12.978Z,98147.95
2017-11-21T06:34:49.580Z,98079.30
2017-11-21T06:36:26.950Z,98109.51
2017-11-21T06:38:03.399Z,98142.66
2017-11-21T06:39:39.698Z,98223.81
2017-11-21T06:41:16.692Z,98169.95
2017-11-21T06:42:53.984Z,98165.55
2017-11-21T06:44:30.381Z,98203.63
2017-11-21T06:46:06.929Z,98242.25
2017-11-21T06:47:43.168Z,98245.35
2017-11-21T06:49:19.865Z,98376.35
2017-11-21T06:50:56.115Z,98437.43
2017-11-21T06:52:33.083Z,98337.03
2017-11-21T06:54:09.289Z,98372.98
2017-11-21T06:55:46.228Z,98384.80
2017-11-21T06:57:22.426Z,98326.44
2017-11-21T06:58:59.202Z,98422.51
2017-11-21T07:00:35.516Z,98421.17
2017-11-21T07:02:12.089Z,98472.10
2017-11-21T07:03:48.389Z,98406.18
2017-11-21T07:05:24.567Z,98425.10
2017-11-21T07:07:00.933Z,98386.98
2017-11-21T07:08:37.517Z,98493.55
2017-11-21T07:10:14.034Z,98512.01
2017-11-21T07:11:50.305Z,98489.58
2017-11-21T07:13:26.658Z,98354.57
2017-11-21T07:15:03.101Z,98313.81
2017-11-21T07:16:40.104Z,98354.66
2017-11-21T07:18:16.823Z,98290.97
2017-11-21T07:19:53.285Z,98338.33
2017-11-21T07:21:29.766Z,98205.94
2017-11-21T07:23:05.986Z,98249.31
2017-11-21T07:24:44.791Z,98182.30
2017-11-21T07:26:20.984Z,98095.13
2017-11-21T07:27:57.543Z,98133.69
2017-11-21T07:29:33.748Z,98259.83
2017-11-21T07:31:10.936Z,98269.04
2017-11-21T07:32:47.389Z,98380.95
2017-11-21T07:34:24.738Z,98447.13
2017-11-21T07:36:00.990Z,98321.17
2017-11-21T07:37:37.402Z,98428.20
2017-11-21T07:39:14.689Z,98302.39
2017-11-21T07:40:52.413Z,98250.69
2017-11-21T07:42:28.880Z,98117.42
2017-11-21T07:44:05.225Z,98114.48
2017-11-21T07:45:41.740Z,98254.99
2017-11-21T07:47:21.969Z,98287.01
2017-11-21T07:48:58.406Z,98261.12
2017-11-21T07:50:36.288Z,98250.25
2017-11-21T07:52:12.702Z,98371.69
2017-11-21T07:53:49.252Z,98509.06
2017-11-21T07:55:26.258Z,98581.04
2017-11-21T07:57:02.881Z,98432.64
2017-11-21T07:58:39.409Z,98398.95
2017-11-21T08:00:25.167Z,98489.78
2017-11-21T08:02:01.862Z,98480.98
2017-11-21T08:03:38.226Z,98320.36
2017-11-21T08:05:14.601Z,98140.23
2017-11-21T08:06:51.299Z,98143.81
2017-11-21T08:08:29.807Z,98318.20
2017-11-21T08:10:06.253Z,98218.73
2017-11-21T08:11:43.636Z,98245.39
2017-11-21T08:13:20.371Z,98217.74
2017-11-21T08:14:56.721Z,98204.22
2017-11-21T08:16:33.038Z,98128.05
2017-11-21T08:18:09.507Z,98103.09
2017-11-21T08:19:45.936Z,98196.77
2017-11-21T08:21:22.245Z,98161.33
2017-11-21T08:22:58.617Z,98170.50
2017-11-21T08:24:35.677Z,98316.05
2017-11-21T08:26:12.946Z,98289.32
2017-11-21T08:27:49.269Z,98425.69
2017-11-21T08:29:25.577Z,98476.15
2017-11-21T08:31:01.956Z,98290.58
2017-11-21T08:32:38.840Z,98244.96
2017-11-21T08:34:15.247Z,98340.68
2017-11-21T08:35:51.506Z,98382.75
2017-11-21T08:37:34.241Z,98516.13
2017-11-21T08:39:11.372Z,98571.45
2017-11-21T08:40:47.729Z,98662.36
2017-11-21T08:42:24.041Z,98629.30
2017-11-21T08:44:00.338Z,98607.48
2017-11-21T08:45:37.759Z,98588.15
2017-11-21T08:47:14.921Z,98673.33
2017-11-21T08:48:51.198Z,98536.25
2017-11-21T08:50:27.429Z,98288.89
2017-11-21T08:52:04.161Z,98140.31
2017-11-21T08:53:40.517Z,98226.65
2017-11-21T08:55:16.721Z,98356.03
2017-11-21T08:56:52.985Z,98349.05
2017-11-21T08:58:29.563Z,98291.88
2017-11-21T09:00:10.993Z,98368.34
2017-11-21T09:01:47.340Z,98499.91
2017-11-21T09:06:51.452Z,98595.69
2017-11-21T09:08:30.465Z,98523.20
2017-11-21T09:10:08.988Z,98564.14
2017-11-21T09:11:46.210Z,98537.77
2017-11-21T09:13:23.838Z,98466.64
2017-11-21T09:15:00.191Z,98395.47
2017-11-21T09:16:36.890Z,98456.98
2017-11-21T09:18:13.141Z,98567.09
2017-11-21T09:19:49.496Z,98600.53
2017-11-21T09:21:25.810Z,98450.82
2017-11-21T09:23:02.907Z,98389.42
2017-11-21T09:24:39.363Z,98473.67
2017-11-21T09:26:16.477Z,98485.49
2017-11-21T09:27:53.005Z,98477.13
2017-11-21T09:29:30.732Z,98444.66
2017-11-21T09:31:07.509Z,98492.45
2017-11-21T09:32:44.824Z,98458.28
2017-11-21T09:34:21.142Z,98304.27
2017-11-21T09:35:58.606Z,98206.66
2017-11-21T09:37:35.007Z,98299.88
2017-11-21T09:39:11.261Z,98337.27
2017-11-21T09:40:47.514Z,98371.80
2017-11-21T09:42:24.781Z,98277.52
2017-11-21T09:44:01.824Z,98256.02
2017-11-21T09:45:38.042Z,98137.30
2017-11-21T09:47:14.428Z,98087.41
2017-11-21T09:48:51.012Z,98067.83
2017-11-21T09:50:29.442Z,98075.27
2017-11-21T09:52:09.677Z,98058.11
2017-11-21T09:53:51.619Z,98088.36
2017-11-21T09:55:28.416Z,98236.45
2017-11-21T09:57:04.861Z,98174.19
2017-11-21T09:58:41.199Z,98140.01
2017-11-21T10:00:21.111Z,98251.71
2017-11-21T10:01:57.866Z,98367.45
2017-11-21T10:03:34.234Z,98370.63
2017-11-21T10:05:10.510Z,98362.23
2017-11-21T10:06:46.951Z,98245.95
2017-11-21T10:08:23.634Z,98139.63
2017-11-21T10:10:00.147Z,98187.33
2017-11-21T10:11:37.171Z,98300.83
2017-11-21T10:13:14.081Z,98329.34
2017-11-21T10:14:50.673Z,98383.30
2017-11-21T10:16:27.390Z,98288.03
2017-11-21T10:18:03.890Z,98179.45
2017-11-21T10:19:40.424Z,98238.19
2017-11-21T10:21:17.162Z,98351.71
2017-11-21T10:22:53.540Z,98397.36
2017-11-21T10:24:31.736Z,98448.63
2017-11-21T10:26:08.113Z,98396.49
2017-11-21T10:27:45.068Z,98350.89
2017-11-21T10:29:28.189Z,98339.08
2017-11-21T10:31:04.934Z,98410.07
2017-11-21T10:32:41.518Z,98479.41
2017-11-21T10:34:18.727Z,98398.19
2017-11-21T10:35:55.962Z,98329.89
2017-11-21T10:37:32.942Z,98442.61
2017-11-21T10:39:09.210Z,98381.58
2017-11-21T10:40:45.869Z,98370.19
2017-11-21T10:42:22.535Z,98429.34
2017-11-21T10:43:59.257Z,98501.41
2017-11-21T10:45:36.938Z,98326.25
2017-11-21T10:47:14.233Z,98345.75
2017-11-21T10:48:50.881Z,98350.50
2017-11-21T10:52:36.715Z,98195.76
2017-11-21T11:00:39.655Z,98168.98
2017-11-21T11:07:04.768Z,98339.47
2017-11-21T11:08:42.903Z,98221.64
2017-11-21T11:10:20.514Z,98201.44
2017-11-21T11:11:57.925Z,98281.17
2017-11-21T11:13:34.536Z,98346.18
2017-11-21T11:15:11.398Z,98215.05
2017-11-21T11:16:47.903Z,98172.98
2017-11-21T11:18:24.995Z,98062.27
2017-11-21T11:20:02.480Z,98165.49
2017-11-21T11:21:39.185Z,98325.97
2017-11-21T11:23:16.060Z,98301.73
2017-11-21T11:24:52.993Z,98180.50
2017-11-21T11:26:29.661Z,98242.18
2017-11-21T11:28:06.115Z,98305.38
2017-11-21T11:29:43.130Z,98385.55
2017-11-21T11:31:19.781Z,98338.69
2017-11-21T11:32:56.136Z,98138.76
2017-11-21T11:34:32.754Z,98148.44
2017-11-21T11:36:09.482Z,98203.28
2017-11-21T11:37:46.407Z,98344.45
2017-11-21T11:39:22.921Z,98318.95
2017-11-21T11:40:59.535Z,98337.74
2017-11-21T11:42:37.170Z,98129.62
2017-11-21T11:44:15.497Z,98029.84
2017-11-21T11:45:53.407Z,97922.67
2017-11-21T11:47:29.875Z,97935.86
2017-11-21T11:49:06.712Z,98068.78
2017-11-21T11:50:43.244Z,98025.02
2017-11-21T11:52:19.743Z,98007.94
2017-11-21T11:53:56.727Z,98119.09
2017-11-21T11:55:34.328Z,98169.41
2017-11-21T11:57:10.727Z,98142.33
2017-11-21T11:58:47.284Z,98159.45
2017-11-21T12:00:25.786Z,98183.56
2017-11-21T12:02:03.279Z,98165.65
2017-11-21T12:03:40.389Z,98181.80
2017-11-21T12:05:17.652Z,98085.94
2017-11-21T12:06:56.840Z,98184.47
2017-11-21T12:08:34.668Z,98216.89
2017-11-21T12:10:11.197Z,98316.80
2017-11-21T12:11:48.490Z,98347.95
2017-11-21T12:13:27.554Z,98348.38
2017-11-21T12:15:07.369Z,98162.48
2017-11-21T12:16:45.866Z,98089.47
2017-11-21T12:18:25.858Z,98172.63
2017-11-21T12:20:06.059Z,98191.95
2017-11-21T12:21:42.979Z,98101.69
2017-11-21T12:23:19.496Z,98123.20
2017-11-21T12:24:57.765Z,98107.76
2017-11-21T12:26:36.256Z,98050.48
2017-11-21T12:28:13.387Z,98111.28
2017-11-21T12:29:50.518Z,98019.34
2017-11-21T12:31:27.026Z,98132.33
2017-11-21T12:33:03.631Z,98114.38
2017-11-21T12:34:41.229Z,98092.56
2017-11-21T12:36:18.382Z,98140.13
2017-11-21T12:37:55.758Z,98221.25
2017-11-21T12:39:33.149Z,98175.22
2017-11-21T12:41:10.532Z,98254.15
2017-11-21T12:42:47.172Z,98127.55
2017-11-21T12:44:24.278Z,97931.52
2017-11-21T12:46:01.123Z,98032.59
2017-11-21T12:47:38.631Z,98075.83
2017-11-21T12:49:15.583Z,98022.91
2017-11-21T12:50:52.822Z,98057.84
2017-11-21T12:52:31.989Z,98076.69
2017-11-21T12:54:10.569Z,98088.13
2017-11-21T12:55:48.499Z,98118.30
2017-11-21T12:57:25.339Z,98001.02
2017-11-21T12:59:03.753Z,98024.63
2017-11-21T13:00:41.259Z,97925.06
2017-11-21T13:02:18.335Z,97767.13
2017-11-21T13:03:56.056Z,97889.02
2017-11-21T13:05:32.840Z,97906.98
2017-11-21T13:07:09.408Z,97832.75
2017-11-21T13:08:46.432Z,97972.23
2017-11-21T13:10:26.112Z,98092.12
2017-11-21T13:12:03.966Z,98041.70
2017-11-21T13:13:40.763Z,98001.99
2017-11-21T13:15:20.438Z,97921.07
2017-11-21T13:16:58.149Z,97979.76
2017-11-21T13:18:36.970Z,98050.92
2017-11-21T13:20:15.403Z,98015.55
2017-11-21T13:21:51.901Z,97895.25
2017-11-21T13:23:28.650Z,97982.78
2017-11-21T13:25:06.321Z,98059.30
2017-11-21T13:26:43.770Z,98089.89
2017-11-21T13:28:20.409Z,98020.02
2017-11-21T13:29:56.947Z,98017.31
2017-11-21T13:31:34.661Z,98149.03
2017-11-21T13:33:11.567Z,98155.19
2017-11-21T13:34:49.710Z,98137.28
2017-11-21T13:36:29.596Z,98182.78
2017-11-21T13:38:06.442Z,98241.17
2017-11-21T13:39:43.803Z,98327.90
2017-11-21T13:41:22.744Z,98345.91
2017-11-21T13:43:00.449Z,98322.17
2017-11-21T13:44:40.883Z,98248.15
2017-11-21T13:46:22.070Z,98210.94
2017-11-21T13:48:05.573Z,98274.86
2017-11-21T13:49:43.962Z,98241.13
2017-11-21T13:51:21.875Z,98210.42
2017-11-21T13:52:59.268Z,98052.41
2017-11-21T13:54:35.821Z,97993.70
2017-11-21T13:56:13.414Z,97932.94
2017-11-21T13:57:50.409Z,97993.73
2017-11-21T13:59:28.047Z,97960.03
2017-11-21T14:01:09.318Z,97935.69
2017-11-21T14:02:47.149Z,98088.30
2017-11-21T14:04:24.884Z,98157.47
2017-11-21T14:06:03.051Z,98156.17
2017-11-21T14:07:40.996Z,98173.22
2017-11-21T14:09:17.464Z,98138.61
2017-11-21T14:10:54.471Z,98055.39
2017-11-21T14:12:31.057Z,98073.49
2017-11-21T14:14:07.654Z,98064.20
2017-11-21T14:15:45.003Z,98079.56
2017-11-21T14:17:26.402Z,98111.06
2017-11-21T14:19:04.462Z,98013.78
2017-11-21T14:20:42.831Z,97961.83
2017-11-21T14:22:21.826Z,97991.12
2017-11-21T14:24:02.470Z,97886.22
2017-11-21T14:25:39.630Z,97808.73
2017-11-21T14:27:17.202Z,97869.59
2017-11-21T14:28:54.860Z,97839.77
2017-11-21T14:30:33.604Z,97924.68
2017-11-21T14:32:11.552Z,98042.73
2017-11-21T14:33:48.736Z,97873.41
2017-11-21T14:35:26.426Z,97791.30
2017-11-21T14:37:03.833Z,97770.84
2017-11-21T14:38:40.284Z,97938.73
2017-11-21T14:40:20.439Z,97977.56
2017-11-21T14:41:58.103Z,97796.55
2017-11-21T14:45:05.236Z,97945.23
2017-11-21T14:46:42.363Z,97859.44
2017-11-21T14:48:19.678Z,97771.59
2017-11-21T14:49:56.636Z,97719.66
2017-11-21T14:51:33.241Z,97687.76
2017-11-21T14:53:11.531Z,97764.66
2017-11-21T14:54:48.001Z,97759.00
2017-11-21T14:56:25.012Z,97750.67
2017-11-21T14:58:01.846Z,97804.02
2017-11-21T14:59:38.505Z,97947.77
2017-11-21T15:01:16.082Z,97848.57
2017-11-21T15:02:53.112Z,97928.59
2017-11-21T15:04:29.723Z,98019.16
2017-11-21T15:06:07.240Z,97978.47
2017-11-21T15:07:43.874Z,98037.53
2017-11-21T15:09:20.893Z,97904.02
2017-11-21T15:10:58.280Z,97947.47
2017-11-21T15:12:34.989Z,97978.47
2017-11-21T15:14:11.627Z,97926.48
2017-11-21T15:15:48.819Z,97962.34
2017-11-21T15:17:26.756Z,97897.52
2017-11-21T15:19:03.340Z,97984.70
2017-11-21T15:20:42.619Z,98038.50
2017-11-21T15:22:19.782Z,98163.23
2017-11-21T15:23:56.907Z,98086.58
2017-11-21T15:25:33.954Z,98097.59
2017-11-21T15:27:10.575Z,98176.01
2017-11-21T15:28:49.120Z,98232.43
2017-11-21T15:30:27.544Z,98191.26
2017-11-21T15:32:04.092Z,98207.09
2017-11-21T15:33:40.969Z,98192.55
2017-11-21T15:35:17.953Z,98144.41
2017-11-21T15:36:54.734Z,98133.48
2017-11-21T15:38:32.218Z,97992.53
2017-11-21T15:40:09.087Z,97891.85
2017-11-21T15:41:45.802Z,97838.16
2017-11-21T15:43:23.964Z,97850.80
2017-11-21T15:45:00.542Z,97805.77
2017-11-21T15:46:37.370Z,97945.82
2017-11-21T15:48:14.783Z,98027.93
2017-11-21T15:49:52.006Z,97994.64
2017-11-21T15:51:28.489Z,98068.67
2017-11-21T15:53:05.022Z,98115.06
2017-11-21T15:54:42.081Z,98046.30
2017-11-21T15:56:19.296Z,98108.08
2017-11-21T15:57:55.836Z,98168.05
2017-11-21T15:59:33.250Z,98201.41
2017-11-21T16:01:10.246Z,98244.78
2017-11-21T16:02:46.880Z,98155.82
2017-11-21T16:04:23.451Z,98158.02
2017-11-21T16:06:00.339Z,98058.21
2017-11-21T16:07:38.441Z,98177.30
2017-11-21T16:09:16.624Z,98214.12
2017-11-21T16:10:55.146Z,98204.47
2017-11-21T16:12:31.708Z,98196.59
2017-11-21T16:14:08.830Z,98277.17
2017-11-21T16:15:45.453Z,98308.75
2017-11-21T16:17:26.567Z,98234.23
2017-11-21T16:19:03.090Z,98233.41
2017-11-21T16:20:40.900Z,98219.80
2017-11-21T16:22:18.519Z,98247.37
2017-11-21T16:24:06.386Z,98260.55
2017-11-21T16:25:45.377Z,98242.11
2017-11-21T16:27:22.882Z,98243.02
2017-11-21T16:29:01.403Z,98320.17
2017-11-21T16:30:38.935Z,98339.05
2017-11-21T16:32:15.387Z,98298.75
2017-11-21T16:33:52.716Z,98234.31
2017-11-21T16:35:29.975Z,98140.97
2017-11-21T16:37:07.228Z,98031.50
2017-11-21T16:38:44.527Z,97979.92
2017-11-21T16:40:21.098Z,98030.25
2017-11-21T16:41:58.235Z,98188.72
2017-11-21T16:43:36.551Z,98216.31
2017-11-21T16:45:15.662Z,98269.89
2017-11-21T16:46:52.343Z,98403.95
2017-11-21T16:48:29.508Z,98277.21
2017-11-21T16:50:07.238Z,98310.59
2017-11-21T16:51:48.751Z,98426.80
2017-11-21T16:53:26.913Z,98376.80
2017-11-21T16:55:03.512Z,98391.67
2017-11-21T16:56:40.089Z,98443.91
2017-11-21T16:58:17.094Z,98449.13
2017-11-21T16:59:53.864Z,98407.41
2017-11-21T17:01:31.378Z,98311.50
2017-11-21T17:03:09.270Z,98363.18
2017-11-21T17:04:46.800Z,98414.48
2017-11-21T17:06:26.797Z,98449.17
2017-11-21T17:08:03.754Z,98445.16
2017-11-21T17:09:40.728Z,98450.08
2017-11-21T17:11:17.627Z,98422.02
2017-11-21T17:13:05.246Z,98417.92
2017-11-21T17:14:41.745Z,98485.19
2017-11-21T17:16:26.353Z,98460.60
2017-11-21T17:18:03.092Z,98472.84
2017-11-21T17:19:40.282Z,98514.98
2017-11-21T17:21:18.673Z,98472.27
2017-11-21T17:23:01.663Z,98422.80
2017-11-21T17:24:42.915Z,98445.25
2017-11-21T17:26:21.605Z,98455.27
2017-11-21T17:27:57.989Z,98413.58
2017-11-21T17:29:38.282Z,98308.28
2017-11-21T17:31:19.773Z,98269.77
2017-11-21T17:33:00.473Z,98340.42
2017-11-21T17:34:37.223Z,98339.00
2017-11-21T17:36:15.276Z,98336.38
2017-11-21T17:37:53.209Z,98316.25
2017-11-21T17:39:31.659Z,98331.20
2017-11-21T17:41:09.315Z,98356.62
2017-11-21T17:42:46.880Z,98410.04
2017-11-21T17:44:25.064Z,98420.20
2017-11-21T17:46:02.434Z,98398.27
2017-11-21T17:47:39.071Z,98251.84
2017-11-21T17:49:16.919Z,98201.89
2017-11-21T17:50:53.781Z,98198.75
2017-11-21T17:52:30.295Z,98263.29
2017-11-21T17:54:07.022Z,98239.48
2017-11-21T17:55:43.504Z,98329.86
2017-11-21T17:57:22.308Z,98202.31
2017-11-21T17:58:59.759Z,98296.08
2017-11-21T18:00:36.789Z,98290.27
2017-11-21T18:02:14.418Z,98286.75
2017-11-21T18:03:51.352Z,98261.33
2017-11-21T18:05:29.076Z,98097.16
2017-11-21T18:07:07.854Z,97961.52
2017-11-21T18:08:45.382Z,98006.08
2017-11-21T18:10:22.373Z,98111.02
2017-11-21T18:12:00.176Z,98151.43
2017-11-21T18:13:37.741Z,98131.33
2017-11-21T18:15:18.703Z,98025.30
2017-11-21T18:17:08.432Z,98070.44
2017-11-21T18:18:45.549Z,98136.03
2017-11-21T18:20:22.907Z,98188.59
2017-11-21T18:21:59.687Z,98281.92
2017-11-21T18:23:37.735Z,98310.48
2017-11-21T18:25:14.063Z,98269.29
2017-11-21T18:26:52.364Z,98256.08
2017-11-21T18:28:29.820Z,98292.47
2017-11-21T18:30:07.462Z,98288.47
2017-11-21T18:31:47.494Z,98203.14
2017-11-21T18:33:28.362Z,98307.85
2017-11-21T18:35:06.059Z,98256.16
2017-11-21T18:36:43.855Z,98303.97
2017-11-21T18:38:45.502Z,98345.98
2017-11-21T18:40:24.757Z,98340.26
2017-11-21T18:42:03.664Z,98321.42
2017-11-21T18:43:41.037Z,98266.16
2017-11-21T18:45:19.335Z,98220.16
2017-11-21T18:46:57.028Z,98227.64
2017-11-21T18:48:35.866Z,98200.00
2017-11-21T18:50:27.241Z,98189.49
2017-11-21T18:52:05.872Z,98272.27
2017-11-21T18:53:45.913Z,98250.81
2017-11-21T18:55:23.680Z,98238.97
2017-11-21T18:57:04.752Z,98302.52
2017-11-21T18:58:41.879Z,98363.53
2017-11-21T19:00:22.127Z,98315.22
2017-11-21T19:02:01.662Z,98345.52
2017-11-21T19:03:38.080Z,98372.70
2017-11-21T19:05:15.416Z,98267.36
2017-11-21T19:06:53.014Z,98134.70
2017-11-21T19:08:34.300Z,98170.59
2017-11-21T19:10:10.835Z,98183.34
2017-11-21T19:11:48.302Z,98174.91
2017-11-21T19:13:26.021Z,98166.63
2017-11-21T19:15:04.361Z,98117.95
2017-11-21T19:16:41.850Z,98037.45
2017-11-21T19:18:18.291Z,98123.28
2017-11-21T19:19:55.558Z,98170.16
2017-11-21T19:21:36.857Z,98163.50
2017-11-21T19:23:15.782Z,98193.38
2017-11-21T19:24:53.084Z,98210.86
2017-11-21T19:26:29.745Z,98183.25
2017-11-21T19:28:07.898Z,98142.48
2017-11-21T19:29:46.579Z,98131.52
2017-11-21T19:31:25.759Z,98114.42
2017-11-21T19:33:03.477Z,98107.97